createdAt,value
2017-05-18T00:00:43.772Z,1002.95
2017-05-18T00:01:45.022Z,1002.98
2017-05-18T00:02:46.425Z,1003.01
2017-05-18T00:03:47.593Z,1002.95
2017-05-18T00:04:48.919Z,1002.97
2017-05-18T00:05:50.214Z,1002.97
2017-05-18T00:06:51.511Z,1002.91
2017-05-18T00:07:52.776Z,1002.88
2017-05-18T00:08:54.377Z,1002.9
2017-05-18T00:09:55.669Z,1002.88
2017-05-18T00:10:56.904Z,1002.89
2017-05-18T00:11:58.159Z,1002.85
2017-05-18T00:12:59.464Z,1002.85
2017-05-18T00:14:00.722Z,1002.86
2017-05-18T00:15:02.003Z,1002.87
2017-05-18T00:16:03.248Z,1002.85
2017-05-18T00:17:04.539Z,1002.83
2017-05-18T00:18:05.758Z,1002.83
2017-05-18T00:19:07.039Z,1002.8
2017-05-18T00:20:08.318Z,1002.79
2017-05-18T00:21:09.603Z,1002.77
2017-05-18T00:22:10.873Z,1002.75
2017-05-18T00:23:12.103Z,1002.72
2017-05-18T00:24:13.374Z,1002.69
2017-05-18T00:25:14.624Z,1002.75
2017-05-18T00:26:15.870Z,1002.71
2017-05-18T00:27:17.199Z,1002.71
2017-05-18T00:28:18.485Z,1002.7
2017-05-18T00:29:19.699Z,1002.7
2017-05-18T00:30:20.969Z,1002.66
2017-05-18T00:31:22.232Z,1002.66
2017-05-18T00:32:23.542Z,1002.68
2017-05-18T00:33:24.798Z,1002.64
2017-05-18T00:34:26.180Z,1002.62
2017-05-18T00:35:27.448Z,1002.63
2017-05-18T00:36:28.681Z,1002.64
2017-05-18T00:37:29.954Z,1002.64
2017-05-18T00:38:31.293Z,1002.58
2017-05-18T00:39:32.677Z,1002.57
2017-05-18T00:40:33.926Z,1002.59
2017-05-18T00:41:35.182Z,1002.56
2017-05-18T00:42:36.441Z,1002.56
2017-05-18T00:43:37.692Z,1002.55
2017-05-18T00:44:39.019Z,1002.53
2017-05-18T00:45:40.370Z,1002.53
2017-05-18T00:46:41.638Z,1002.52
2017-05-18T00:47:42.887Z,1002.55
2017-05-18T00:48:44.161Z,1002.51
2017-05-18T00:49:45.476Z,1002.48
2017-05-18T00:50:46.793Z,1002.54
2017-05-18T00:51:48.222Z,1002.52
2017-05-18T00:52:49.485Z,1002.52
2017-05-18T00:53:50.764Z,1002.5
2017-05-18T00:54:52.059Z,1002.55
2017-05-18T00:55:53.455Z,1002.51
2017-05-18T00:56:54.744Z,1002.52
2017-05-18T00:57:55.998Z,1002.51
2017-05-18T00:58:57.277Z,1002.48
2017-05-18T00:59:58.534Z,1002.5
2017-05-18T01:00:59.823Z,1002.49
2017-05-18T01:02:01.223Z,1002.49
2017-05-18T01:03:02.498Z,1002.47
2017-05-18T01:04:03.689Z,1002.5
2017-05-18T01:05:04.949Z,1002.49
2017-05-18T01:06:06.220Z,1002.46
2017-05-18T01:07:07.478Z,1002.47
2017-05-18T01:08:08.826Z,1002.46
2017-05-18T01:09:10.230Z,1002.48
2017-05-18T01:10:11.493Z,1002.44
2017-05-18T01:11:12.753Z,1002.45
2017-05-18T01:12:14.043Z,1002.46
2017-05-18T01:13:15.271Z,1002.39
2017-05-18T01:14:16.557Z,1002.42
2017-05-18T01:15:18.009Z,1002.4
2017-05-18T01:16:19.278Z,1002.41
2017-05-18T01:17:20.520Z,1002.37
2017-05-18T01:18:21.796Z,1002.38
2017-05-18T01:19:23.133Z,1002.39
2017-05-18T01:20:24.441Z,1002.37
2017-05-18T01:21:25.718Z,1002.35
2017-05-18T01:22:26.996Z,1002.31
2017-05-18T01:23:28.243Z,1002.29
2017-05-18T01:24:29.577Z,1002.34
2017-05-18T01:25:30.900Z,1002.36
2017-05-18T01:26:32.236Z,1002.35
2017-05-18T01:27:33.507Z,1002.29
2017-05-18T01:28:34.759Z,1002.31
2017-05-18T01:29:36.028Z,1002.3
2017-05-18T01:30:37.313Z,1002.3
2017-05-18T01:31:38.590Z,1002.33
2017-05-18T01:32:39.887Z,1002.31
2017-05-18T01:33:41.166Z,1002.24
2017-05-18T01:34:42.408Z,1002.27
2017-05-18T01:35:43.678Z,1002.24
2017-05-18T01:36:44.987Z,1002.27
2017-05-18T01:37:46.293Z,1002.24
2017-05-18T01:38:47.515Z,1002.29
2017-05-18T01:39:48.763Z,1002.23
2017-05-18T01:40:50.017Z,1002.22
2017-05-18T01:41:51.315Z,1002.22
2017-05-18T01:42:52.618Z,1002.18
2017-05-18T01:43:53.901Z,1002.21
2017-05-18T01:44:55.215Z,1002.18
2017-05-18T01:45:56.448Z,1002.18
2017-05-18T01:46:57.714Z,1002.19
2017-05-18T01:47:59.003Z,1002.17
2017-05-18T01:49:00.306Z,1002.17
2017-05-18T01:50:01.619Z,1002.16
2017-05-18T01:51:02.870Z,1002.19
2017-05-18T01:52:04.119Z,1002.18
2017-05-18T01:53:05.381Z,1002.16
2017-05-18T01:54:06.758Z,1002.13
2017-05-18T01:55:08.038Z,1002.14
2017-05-18T01:56:09.306Z,1002.13
2017-05-18T01:57:10.573Z,1002.13
2017-05-18T01:58:11.813Z,1002.09
2017-05-18T01:59:13.092Z,1002.11
2017-05-18T02:00:14.363Z,1002.09
2017-05-18T02:01:15.740Z,1002.14
2017-05-18T02:02:16.989Z,1002.12
2017-05-18T02:03:18.337Z,1002.12
2017-05-18T02:04:19.567Z,1002.14
2017-05-18T02:05:20.936Z,1002.14
2017-05-18T02:06:22.177Z,1002.12
2017-05-18T02:07:23.436Z,1002.11
2017-05-18T02:08:24.697Z,1002.11
2017-05-18T02:09:25.973Z,1002.08
2017-05-18T02:10:27.296Z,1002.08
2017-05-18T02:11:28.681Z,1002.11
2017-05-18T02:12:29.963Z,1002.12
2017-05-18T02:13:31.222Z,1002.1
2017-05-18T02:14:32.506Z,1002.1
2017-05-18T02:15:33.755Z,1002.09
2017-05-18T02:16:35.087Z,1002.06
2017-05-18T02:17:36.344Z,1002.06
2017-05-18T02:18:37.590Z,1002.03
2017-05-18T02:19:38.912Z,1002.03
2017-05-18T02:20:40.151Z,1002.05
2017-05-18T02:21:41.413Z,1002.01
2017-05-18T02:22:42.733Z,1002.02
2017-05-18T02:23:43.980Z,1002.02
2017-05-18T02:24:45.249Z,1001.98
2017-05-18T02:25:46.507Z,1001.98
2017-05-18T02:26:47.758Z,1001.99
2017-05-18T02:27:49.009Z,1001.99
2017-05-18T02:28:50.265Z,1002
2017-05-18T02:29:51.514Z,1002.01
2017-05-18T02:30:52.781Z,1002.06
2017-05-18T02:31:54.172Z,1002
2017-05-18T02:32:55.440Z,1002
2017-05-18T02:33:56.668Z,1002.04
2017-05-18T02:34:57.947Z,1002.03
2017-05-18T02:35:59.192Z,1002.06
2017-05-18T02:37:00.553Z,1002.12
2017-05-18T02:38:01.831Z,1002.05
2017-05-18T02:39:03.087Z,1002.09
2017-05-18T02:40:04.342Z,1002.12
2017-05-18T02:41:05.702Z,1002.15
2017-05-18T02:42:07.061Z,1002.11
2017-05-18T02:43:08.346Z,1002.19
2017-05-18T02:44:09.617Z,1002.11
2017-05-18T02:45:10.898Z,1002.14
2017-05-18T02:46:12.160Z,1002.13
2017-05-18T02:47:13.408Z,1002.12
2017-05-18T02:48:14.671Z,1002.12
2017-05-18T02:49:15.948Z,1002.11
2017-05-18T02:50:17.242Z,1002.18
2017-05-18T02:51:18.478Z,1002.16
2017-05-18T02:52:19.758Z,1002.16
2017-05-18T02:53:21.090Z,1002.17
2017-05-18T02:54:22.395Z,1002.16
2017-05-18T02:55:23.672Z,1002.19
2017-05-18T02:56:24.913Z,1002.18
2017-05-18T02:57:26.192Z,1002.17
2017-05-18T02:58:27.465Z,1002.19
2017-05-18T02:59:28.829Z,1002.19
2017-05-18T03:00:30.132Z,1002.18
2017-05-18T03:01:31.464Z,1002.18
2017-05-18T03:02:32.755Z,1002.2
2017-05-18T03:03:34.018Z,1002.16
2017-05-18T03:04:35.276Z,1002.14
2017-05-18T03:05:36.585Z,1002.14
2017-05-18T03:06:37.847Z,1002.17
2017-05-18T03:07:39.107Z,1002.15
2017-05-18T03:08:40.373Z,1002.18
2017-05-18T03:09:41.643Z,1002.15
2017-05-18T03:10:42.971Z,1002.18
2017-05-18T03:11:44.240Z,1002.16
2017-05-18T03:12:45.507Z,1002.09
2017-05-18T03:13:46.773Z,1002.13
2017-05-18T03:14:48.030Z,1002.17
2017-05-18T03:15:49.322Z,1002.15
2017-05-18T03:16:50.570Z,1002.16
2017-05-18T03:17:51.869Z,1002.23
2017-05-18T03:18:53.120Z,1002.24
2017-05-18T03:19:54.470Z,1002.23
2017-05-18T03:20:55.732Z,1002.2
2017-05-18T03:21:57.099Z,1002.22
2017-05-18T03:22:58.370Z,1002.2
2017-05-18T03:23:59.591Z,1002.2
2017-05-18T03:25:00.928Z,1002.26
2017-05-18T03:26:02.187Z,1002.23
2017-05-18T03:27:03.517Z,1002.24
2017-05-18T03:28:04.784Z,1002.23
2017-05-18T03:29:06.142Z,1002.25
2017-05-18T03:30:07.375Z,1002.21
2017-05-18T03:31:08.627Z,1002.25
2017-05-18T03:32:09.930Z,1002.22
2017-05-18T03:33:11.204Z,1002.22
2017-05-18T03:34:12.479Z,1002.23
2017-05-18T03:35:13.747Z,1002.27
2017-05-18T03:36:15.024Z,1002.26
2017-05-18T03:37:16.387Z,1002.27
2017-05-18T03:38:17.623Z,1002.28
2017-05-18T03:39:18.993Z,1002.29
2017-05-18T03:40:20.372Z,1002.3
2017-05-18T03:41:21.618Z,1002.28
2017-05-18T03:42:22.925Z,1002.32
2017-05-18T03:43:24.263Z,1002.31
2017-05-18T03:44:25.489Z,1002.35
2017-05-18T03:45:26.866Z,1002.32
2017-05-18T03:46:28.155Z,1002.32
2017-05-18T03:47:29.437Z,1002.31
2017-05-18T03:48:30.710Z,1002.36
2017-05-18T03:49:31.941Z,1002.35
2017-05-18T03:50:33.248Z,1002.35
2017-05-18T03:51:34.519Z,1002.36
2017-05-18T03:52:35.885Z,1002.35
2017-05-18T03:53:37.174Z,1002.34
2017-05-18T03:54:38.406Z,1002.35
2017-05-18T03:55:39.669Z,1002.4
2017-05-18T03:56:40.951Z,1002.36
2017-05-18T03:57:42.296Z,1002.39
2017-05-18T03:58:43.466Z,1002.41
2017-05-18T03:59:44.743Z,1002.4
2017-05-18T04:00:45.966Z,1002.39
2017-05-18T04:01:47.314Z,1002.37
2017-05-18T04:02:48.662Z,1002.38
2017-05-18T04:03:50.105Z,1002.41
2017-05-18T04:04:51.339Z,1002.36
2017-05-18T04:05:52.587Z,1002.41
2017-05-18T04:06:53.844Z,1002.4
2017-05-18T04:07:55.106Z,1002.4
2017-05-18T04:08:56.385Z,1002.4
2017-05-18T04:09:57.622Z,1002.4
2017-05-18T04:10:58.942Z,1002.41
2017-05-18T04:12:00.263Z,1002.43
2017-05-18T04:13:01.493Z,1002.4
2017-05-18T04:14:02.793Z,1002.4
2017-05-18T04:15:04.045Z,1002.4
2017-05-18T04:16:05.371Z,1002.42
2017-05-18T04:17:06.638Z,1002.42
2017-05-18T04:18:07.914Z,1002.43
2017-05-18T04:19:09.189Z,1002.48
2017-05-18T04:20:10.472Z,1002.43
2017-05-18T04:21:11.774Z,1002.43
2017-05-18T04:22:13.064Z,1002.48
2017-05-18T04:23:14.334Z,1002.47
2017-05-18T04:24:15.578Z,1002.44
2017-05-18T04:25:16.860Z,1002.49
2017-05-18T04:26:18.127Z,1002.52
2017-05-18T04:27:19.406Z,1002.49
2017-05-18T04:28:20.875Z,1002.53
2017-05-18T04:29:22.114Z,1002.49
2017-05-18T04:30:23.380Z,1002.56
2017-05-18T04:31:24.680Z,1002.55
2017-05-18T04:32:25.967Z,1002.59
2017-05-18T04:33:27.218Z,1002.58
2017-05-18T04:34:28.480Z,1002.54
2017-05-18T04:35:29.756Z,1002.59
2017-05-18T04:36:31.047Z,1002.6
2017-05-18T04:37:32.333Z,1002.56
2017-05-18T04:38:33.562Z,1002.6
2017-05-18T04:39:34.837Z,1002.61
2017-05-18T04:40:36.134Z,1002.62
2017-05-18T04:41:37.391Z,1002.64
2017-05-18T04:42:38.647Z,1002.64
2017-05-18T04:43:39.929Z,1002.63
2017-05-18T04:44:41.337Z,1002.68
2017-05-18T04:45:42.519Z,1002.64
2017-05-18T04:46:43.804Z,1002.64
2017-05-18T04:47:45.093Z,1002.64
2017-05-18T04:48:46.361Z,1002.65
2017-05-18T04:49:47.783Z,1002.68
2017-05-18T04:50:49.045Z,1002.66
2017-05-18T04:51:50.339Z,1002.68
2017-05-18T04:52:51.568Z,1002.7
2017-05-18T04:53:52.921Z,1002.74
2017-05-18T04:54:54.111Z,1002.69
2017-05-18T04:55:55.419Z,1002.73
2017-05-18T04:56:56.684Z,1002.73
2017-05-18T04:57:57.960Z,1002.74
2017-05-18T04:58:59.196Z,1002.78
2017-05-18T05:00:00.463Z,1002.75
2017-05-18T05:01:01.734Z,1002.77
2017-05-18T05:02:03.028Z,1002.76
2017-05-18T05:03:04.298Z,1002.81
2017-05-18T05:04:05.616Z,1002.81
2017-05-18T05:05:06.879Z,1002.81
2017-05-18T05:06:08.123Z,1002.84
2017-05-18T05:07:09.431Z,1002.8
2017-05-18T05:08:10.990Z,1002.81
2017-05-18T05:09:12.225Z,1002.81
2017-05-18T05:10:13.480Z,1002.81
2017-05-18T05:11:14.748Z,1002.84
2017-05-18T05:12:16.040Z,1002.77
2017-05-18T05:13:17.310Z,1002.81
2017-05-18T05:14:18.616Z,1002.81
2017-05-18T05:15:19.935Z,1002.82
2017-05-18T05:16:21.233Z,1002.83
2017-05-18T05:17:22.497Z,1002.86
2017-05-18T05:18:23.757Z,1002.86
2017-05-18T05:19:25.062Z,1002.89
2017-05-18T05:20:26.364Z,1002.91
2017-05-18T05:21:27.642Z,1002.95
2017-05-18T05:22:28.951Z,1002.95
2017-05-18T05:23:30.181Z,1002.93
2017-05-18T05:24:31.456Z,1002.92
2017-05-18T05:25:32.899Z,1002.97
2017-05-18T05:26:34.176Z,1002.94
2017-05-18T05:27:35.523Z,1002.97
2017-05-18T05:28:36.791Z,1002.99
2017-05-18T05:29:38.023Z,1003.07
2017-05-18T05:30:39.280Z,1003.04
2017-05-18T05:31:40.710Z,1003.09
2017-05-18T05:32:41.927Z,1003.1
2017-05-18T05:33:43.218Z,1003.06
2017-05-18T05:34:44.466Z,1003.03
2017-05-18T05:35:45.805Z,1003.03
2017-05-18T05:36:47.132Z,1003.04
2017-05-18T05:37:48.463Z,1003.06
2017-05-18T05:38:49.721Z,1003.07
2017-05-18T05:39:50.995Z,1003.09
2017-05-18T05:40:52.250Z,1003.11
2017-05-18T05:41:53.550Z,1003.13
2017-05-18T05:42:54.904Z,1003.14
2017-05-18T05:43:56.233Z,1003.16
2017-05-18T05:44:57.498Z,1003.1
2017-05-18T05:45:58.769Z,1003.15
2017-05-18T05:47:00.038Z,1003.27
2017-05-18T05:48:01.430Z,1003.29
2017-05-18T05:49:02.765Z,1003.25
2017-05-18T05:50:04.039Z,1003.32
2017-05-18T05:51:05.310Z,1003.3
2017-05-18T05:52:06.657Z,1003.38
2017-05-18T05:53:07.897Z,1003.43
2017-05-18T05:54:09.242Z,1003.28
2017-05-18T05:55:10.520Z,1003.18
2017-05-18T05:56:11.793Z,1003.38
2017-05-18T05:57:13.055Z,1003.37
2017-05-18T05:58:14.370Z,1003.39
2017-05-18T05:59:15.602Z,1003.29
2017-05-18T06:00:17.017Z,1003.32
2017-05-18T06:01:18.290Z,1003.34
2017-05-18T06:02:19.573Z,1003.32
2017-05-18T06:03:20.855Z,1003.36
2017-05-18T06:04:22.114Z,1003.41
2017-05-18T06:10:09.684Z,1003.56
2017-05-18T06:11:10.974Z,1003.54
2017-05-18T06:12:12.317Z,1003.58
2017-05-18T06:13:13.529Z,1003.59
2017-05-18T06:14:14.755Z,1003.66
2017-05-18T06:15:16.010Z,1003.68
2017-05-18T06:16:17.269Z,1003.74
2017-05-18T06:17:18.638Z,1003.8
2017-05-18T06:18:19.780Z,1003.94
2017-05-18T06:19:21.146Z,1004.03
2017-05-18T06:20:22.445Z,1004.07
2017-05-18T06:21:23.704Z,1004.04
2017-05-18T06:22:24.932Z,1003.82
2017-05-18T06:23:26.186Z,1003.86
2017-05-18T06:24:27.443Z,1003.92
2017-05-18T06:25:28.750Z,1003.76
2017-05-18T06:26:30.027Z,1004.03
2017-05-18T06:27:31.262Z,1004.04
2017-05-18T06:28:32.527Z,1004.11
2017-05-18T06:29:33.783Z,1004.2
2017-05-18T06:30:35.088Z,1003.75
2017-05-18T06:31:36.352Z,1003.98
2017-05-18T06:32:37.629Z,1004.17
2017-05-18T06:33:38.880Z,1004.08
2017-05-18T06:34:40.138Z,1004.09
2017-05-18T06:35:41.422Z,1004.06
2017-05-18T06:36:42.740Z,1004.02
2017-05-18T06:37:44.001Z,1003.97
2017-05-18T06:38:45.259Z,1003.66
2017-05-18T06:39:46.515Z,1003.56
2017-05-18T06:40:47.765Z,1003.61
2017-05-18T06:41:49.082Z,1003.6
2017-05-18T06:42:50.358Z,1003.56
2017-05-18T06:43:51.589Z,1003.65
2017-05-18T06:44:52.840Z,1003.68
2017-05-18T06:45:54.094Z,1003.68
2017-05-18T06:46:55.378Z,1003.78
2017-05-18T06:47:56.607Z,1003.78
2017-05-18T06:48:57.964Z,1003.83
2017-05-18T06:49:59.223Z,1003.87
2017-05-18T06:51:00.484Z,1003.92
2017-05-18T06:52:01.743Z,1003.95
2017-05-18T06:53:03.030Z,1004.06
2017-05-18T06:54:04.250Z,1004.28
2017-05-18T06:55:05.518Z,1004.15
2017-05-18T06:56:06.815Z,1004.2
2017-05-18T06:57:08.167Z,1004.01
2017-05-18T06:58:09.427Z,1004.12
2017-05-18T06:59:10.682Z,1004.13
2017-05-18T07:00:11.937Z,1004.25
2017-05-18T07:01:13.268Z,1004.19
2017-05-18T07:02:14.515Z,1004.25
2017-05-18T07:03:15.768Z,1004.38
2017-05-18T07:04:17.056Z,1004.31
2017-05-18T07:05:18.316Z,1004.04
2017-05-18T07:06:19.598Z,1004.12
2017-05-18T07:07:20.898Z,1004.08
2017-05-18T07:08:22.165Z,1004.11
2017-05-18T07:09:23.460Z,1004.22
2017-05-18T07:10:24.690Z,1004.4
2017-05-18T07:11:25.942Z,1004.2
2017-05-18T07:12:27.227Z,1004.1
2017-05-18T07:13:28.492Z,1004.11
2017-05-18T07:14:29.746Z,1004.08
2017-05-18T07:15:31.008Z,1004.17
2017-05-18T07:16:32.295Z,1004.2
2017-05-18T07:17:33.541Z,1004.24
2017-05-18T07:18:34.826Z,1004.29
2017-05-18T07:19:36.083Z,1004.29
2017-05-18T07:20:37.340Z,1004.36
2017-05-18T07:21:38.692Z,1004.34
2017-05-18T07:22:39.973Z,1004.29
2017-05-18T07:23:41.215Z,1004.31
2017-05-18T07:24:42.488Z,1004.31
2017-05-18T07:25:43.725Z,1004.21
2017-05-18T07:26:45.004Z,1004.25
2017-05-18T07:27:46.272Z,1004.29
2017-05-18T07:28:47.540Z,1004.34
2017-05-18T07:29:48.796Z,1004.37
2017-05-18T07:30:50.061Z,1004.42
2017-05-18T07:31:51.340Z,1004.38
2017-05-18T07:32:52.688Z,1004.39
2017-05-18T07:33:53.947Z,1004.4
2017-05-18T07:34:55.217Z,1004.4
2017-05-18T07:35:56.443Z,1004.4
2017-05-18T07:36:57.832Z,1004.43
2017-05-18T07:37:59.137Z,1004.42
2017-05-18T07:39:00.411Z,1004.41
2017-05-18T07:40:01.684Z,1004.42
2017-05-18T07:41:02.963Z,1004.49
2017-05-18T07:42:04.191Z,1004.48
2017-05-18T07:43:05.499Z,1004.46
2017-05-18T07:44:06.835Z,1004.44
2017-05-18T07:45:08.134Z,1004.45
2017-05-18T07:46:09.380Z,1004.5
2017-05-18T07:47:10.654Z,1004.51
2017-05-18T07:48:11.973Z,1004.48
2017-05-18T07:49:13.434Z,1004.46
2017-05-18T07:50:14.713Z,1004.46
2017-05-18T07:51:15.940Z,1004.5
2017-05-18T07:52:17.197Z,1004.54
2017-05-18T07:53:18.448Z,1004.52
2017-05-18T07:54:19.737Z,1004.53
2017-05-18T07:55:21.054Z,1004.54
2017-05-18T07:56:22.341Z,1004.55
2017-05-18T07:57:23.581Z,1004.58
2017-05-18T07:58:24.831Z,1004.67
2017-05-18T07:59:26.081Z,1004.65
2017-05-18T08:00:27.337Z,1004.73
2017-05-18T08:01:28.605Z,1004.78
2017-05-18T08:02:29.888Z,1004.78
2017-05-18T08:03:31.139Z,1004.77
2017-05-18T08:04:32.400Z,1004.78
2017-05-18T08:05:33.679Z,1004.79
2017-05-18T08:06:34.988Z,1004.79
2017-05-18T08:07:36.276Z,1004.79
2017-05-18T08:08:37.550Z,1004.78
2017-05-18T08:09:38.789Z,1004.82
2017-05-18T08:10:40.058Z,1004.78
2017-05-18T08:11:41.280Z,1004.75
2017-05-18T08:12:42.542Z,1004.77
2017-05-18T08:13:43.787Z,1004.73
2017-05-18T08:14:45.198Z,1004.74
2017-05-18T08:15:46.494Z,1004.75
2017-05-18T08:16:47.750Z,1004.7
2017-05-18T08:17:49.006Z,1004.77
2017-05-18T08:18:50.250Z,1004.76
2017-05-18T08:19:51.499Z,1004.78
2017-05-18T08:20:52.768Z,1004.85
2017-05-18T08:21:54.017Z,1004.87
2017-05-18T08:22:55.267Z,1004.83
2017-05-18T08:23:56.517Z,1004.83
2017-05-18T08:24:57.768Z,1004.84
2017-05-18T08:25:59.037Z,1004.85
2017-05-18T08:27:00.392Z,1004.8
2017-05-18T08:28:01.632Z,1004.82
2017-05-18T08:29:02.900Z,1004.79
2017-05-18T08:30:04.159Z,1004.82
2017-05-18T08:31:05.488Z,1004.84
2017-05-18T08:32:06.795Z,1004.84
2017-05-18T08:33:08.060Z,1004.83
2017-05-18T08:34:09.307Z,1004.81
2017-05-18T08:35:10.562Z,1004.83
2017-05-18T08:36:11.827Z,1004.81
2017-05-18T08:37:13.121Z,1004.78
2017-05-18T08:38:14.419Z,1004.81
2017-05-18T08:39:15.702Z,1004.8
2017-05-18T08:40:16.948Z,1004.95
2017-05-18T08:41:18.171Z,1004.97
2017-05-18T08:42:19.470Z,1005.03
2017-05-18T08:43:20.709Z,1005.13
2017-05-18T08:44:21.978Z,1005.13
2017-05-18T08:45:23.292Z,1005.06
2017-05-18T08:46:24.613Z,1005.11
2017-05-18T08:47:25.865Z,1005.05
2017-05-18T08:48:27.136Z,1004.95
2017-05-18T08:49:28.419Z,1005.02
2017-05-18T08:50:29.632Z,1005.06
2017-05-18T08:51:30.881Z,1005.1
2017-05-18T08:52:32.136Z,1004.91
2017-05-18T08:53:33.389Z,1004.88
2017-05-18T08:54:34.638Z,1004.94
2017-05-18T08:55:35.907Z,1004.89
2017-05-18T08:56:37.204Z,1004.86
2017-05-18T08:57:38.581Z,1004.83
2017-05-18T08:58:39.834Z,1004.75
2017-05-18T08:59:41.087Z,1004.74
2017-05-18T09:00:42.343Z,1004.69
2017-05-18T09:01:43.802Z,1004.67
2017-05-18T09:02:45.120Z,1004.72
2017-05-18T09:03:46.382Z,1004.75
2017-05-18T09:04:47.626Z,1004.85
2017-05-18T09:05:48.879Z,1004.86
2017-05-18T09:06:50.142Z,1004.9
2017-05-18T09:07:51.433Z,1004.94
2017-05-18T09:08:52.733Z,1004.92
2017-05-18T09:09:53.988Z,1004.88
2017-05-18T09:10:55.238Z,1004.9
2017-05-18T09:11:56.479Z,1004.92
2017-05-18T09:12:57.744Z,1004.85
2017-05-18T09:13:59.016Z,1004.86
2017-05-18T09:15:00.343Z,1004.95
2017-05-18T09:16:01.572Z,1005.12
2017-05-18T09:17:02.840Z,1005.21
2017-05-18T09:18:04.131Z,1005.22
2017-05-18T09:19:05.370Z,1005.25
2017-05-18T09:20:06.662Z,1005.24
2017-05-18T09:21:07.995Z,1005.35
2017-05-18T09:22:09.216Z,1005.45
2017-05-18T09:23:10.459Z,1005.17
2017-05-18T09:24:11.736Z,1005.26
2017-05-18T09:25:13.051Z,1005.27
2017-05-18T09:26:14.368Z,1005.28
2017-05-18T09:27:15.570Z,1005.96
2017-05-18T09:28:16.848Z,1005.79
2017-05-18T09:29:18.109Z,1005.76
2017-05-18T09:30:19.366Z,1005.82
2017-05-18T09:31:20.708Z,1006.12
2017-05-18T09:32:21.956Z,1005.28
2017-05-18T09:33:23.217Z,1006.74
2017-05-18T09:34:24.508Z,1006.64
2017-05-18T09:35:25.742Z,1006.18
2017-05-18T09:36:27.007Z,1006.17
2017-05-18T09:37:28.249Z,1005.71
2017-05-18T09:38:29.510Z,1005.83
2017-05-18T09:39:30.769Z,1006.2
2017-05-18T09:40:32.036Z,1006.24
2017-05-18T09:41:33.304Z,1005.46
2017-05-18T09:42:34.524Z,1005.73
2017-05-18T09:43:35.883Z,1005.13
2017-05-18T09:44:37.143Z,1005.1
2017-05-18T09:45:38.432Z,1005.09
2017-05-18T09:46:39.689Z,1005.02
2017-05-18T09:47:40.922Z,1004.9
2017-05-18T09:48:42.184Z,1005.02
2017-05-18T09:49:43.446Z,1004.98
2017-05-18T09:50:44.781Z,1005.01
2017-05-18T09:51:46.064Z,1005.07
2017-05-18T09:52:47.359Z,1005.08
2017-05-18T09:53:48.586Z,1005.04
2017-05-18T09:54:49.865Z,1005.13
2017-05-18T09:55:51.092Z,1004.98
2017-05-18T09:56:52.338Z,1005.09
2017-05-18T09:57:53.662Z,1005.06
2017-05-18T09:58:54.880Z,1005
2017-05-18T09:59:56.157Z,1005.03
2017-05-18T10:00:57.403Z,1004.99
2017-05-18T10:01:58.662Z,1004.93
2017-05-18T10:02:59.989Z,1004.96
2017-05-18T10:04:01.216Z,1004.93
2017-05-18T10:05:02.477Z,1004.98
2017-05-18T10:06:03.753Z,1005.01
2017-05-18T10:07:05.000Z,1005.03
2017-05-18T10:08:06.290Z,1005.03
2017-05-18T10:09:07.618Z,1005.09
2017-05-18T10:10:08.881Z,1005.22
2017-05-18T10:11:10.205Z,1005.26
2017-05-18T10:12:11.449Z,1005.12
2017-05-18T10:13:12.725Z,1005.15
2017-05-18T10:14:14.031Z,1005.17
2017-05-18T10:15:15.344Z,1005.14
2017-05-18T10:16:16.618Z,1005.16
2017-05-18T10:17:17.875Z,1005.17
2017-05-18T10:18:19.126Z,1005.24
2017-05-18T10:19:20.371Z,1005.16
2017-05-18T10:20:21.646Z,1005.17
2017-05-18T10:21:23.026Z,1005.2
2017-05-18T10:22:24.302Z,1005.18
2017-05-18T10:23:25.574Z,1005.25
2017-05-18T10:24:26.806Z,1005.34
2017-05-18T10:25:28.062Z,1005.35
2017-05-18T10:26:29.374Z,1005.28
2017-05-18T10:27:30.633Z,1005.19
2017-05-18T10:28:31.910Z,1005.13
2017-05-18T10:29:33.180Z,1005.14
2017-05-18T10:30:34.440Z,1005.13
2017-05-18T10:31:35.709Z,1005.12
2017-05-18T10:32:37.058Z,1005.12
2017-05-18T10:33:38.395Z,1005.13
2017-05-18T10:34:39.657Z,1005.12
2017-05-18T10:35:40.969Z,1005.17
2017-05-18T10:36:42.190Z,1005.2
2017-05-18T10:37:43.538Z,1005.11
2017-05-18T10:38:44.851Z,1005.13
2017-05-18T10:39:46.101Z,1005.21
2017-05-18T10:40:47.420Z,1005.18
2017-05-18T10:41:48.648Z,1005.2
2017-05-18T10:42:49.916Z,1005.28
2017-05-18T10:43:51.184Z,1005.28
2017-05-18T10:44:52.451Z,1005.32
2017-05-18T10:45:53.720Z,1005.35
2017-05-18T10:46:54.964Z,1005.29
2017-05-18T10:47:56.233Z,1005.31
2017-05-18T10:48:57.541Z,1005.3
2017-05-18T10:49:58.797Z,1005.28
2017-05-18T10:51:00.046Z,1005.34
2017-05-18T10:52:01.366Z,1005.29
2017-05-18T10:53:02.634Z,1005.29
2017-05-18T10:54:03.878Z,1005.29
2017-05-18T10:55:05.118Z,1005.3
2017-05-18T10:56:06.407Z,1005.25
2017-05-18T10:57:07.751Z,1005.28
2017-05-18T10:58:09.026Z,1005.23
2017-05-18T10:59:10.260Z,1005.22
2017-05-18T11:00:11.517Z,1005.19
2017-05-18T11:01:12.772Z,1005.15
2017-05-18T11:02:14.035Z,1005.17
2017-05-18T11:03:15.344Z,1005.19
2017-05-18T11:04:16.628Z,1005.17
2017-05-18T11:05:17.874Z,1005.17
2017-05-18T11:06:19.166Z,1005.15
2017-05-18T11:07:20.379Z,1005.14
2017-05-18T11:08:21.637Z,1005.17
2017-05-18T11:09:22.931Z,1005.14
2017-05-18T11:10:24.187Z,1005.14
2017-05-18T11:11:25.424Z,1005.14
2017-05-18T11:12:26.781Z,1005.16
2017-05-18T11:13:28.033Z,1005.15
2017-05-18T11:14:29.343Z,1005.12
2017-05-18T11:15:30.640Z,1005.14
2017-05-18T11:16:31.916Z,1005.16
2017-05-18T11:17:33.162Z,1005.17
2017-05-18T11:18:34.407Z,1005.2
2017-05-18T11:19:35.688Z,1005.22
2017-05-18T11:20:36.946Z,1005.24
2017-05-18T11:21:38.198Z,1005.23
2017-05-18T11:22:39.523Z,1005.24
2017-05-18T11:23:40.765Z,1005.19
2017-05-18T11:24:42.039Z,1005.22
2017-05-18T11:25:43.272Z,1005.19
2017-05-18T11:26:44.529Z,1005.2
2017-05-18T11:27:45.867Z,1005.18
2017-05-18T11:28:47.129Z,1005.13
2017-05-18T11:29:48.402Z,1005.14
2017-05-18T11:30:49.642Z,1005.16
2017-05-18T11:31:50.890Z,1005.15
2017-05-18T11:32:52.144Z,1005.14
2017-05-18T11:33:53.432Z,1005.16
2017-05-18T11:34:54.732Z,1005.18
2017-05-18T11:35:55.957Z,1005.21
2017-05-18T11:36:57.201Z,1005.19
2017-05-18T11:37:58.465Z,1005.23
2017-05-18T11:38:59.720Z,1005.2
2017-05-18T11:40:01.145Z,1005.21
2017-05-18T11:41:02.354Z,1005.21
2017-05-18T11:42:03.607Z,1005.21
2017-05-18T11:43:04.852Z,1005.2
2017-05-18T11:44:06.108Z,1005.15
2017-05-18T11:45:07.387Z,1005.16
2017-05-18T11:46:08.657Z,1005.16
2017-05-18T11:47:09.918Z,1005.17
2017-05-18T11:48:11.199Z,1005.18
2017-05-18T11:49:12.406Z,1005.14
2017-05-18T11:50:13.665Z,1005.17
2017-05-18T11:51:14.930Z,1005.14
2017-05-18T11:52:16.183Z,1005.13
2017-05-18T11:53:17.593Z,1005.2
2017-05-18T11:54:18.851Z,1005.17
2017-05-18T11:55:20.108Z,1005.17
2017-05-18T11:56:21.349Z,1005.12
2017-05-18T11:57:22.628Z,1005.12
2017-05-18T11:58:23.886Z,1005.14
2017-05-18T11:59:25.139Z,1005.15
2017-05-18T12:00:26.385Z,1005.13
2017-05-18T12:01:27.648Z,1005.14
2017-05-18T12:02:28.893Z,1005.16
2017-05-18T12:03:30.131Z,1005.17
2017-05-18T12:04:31.471Z,1005.15
2017-05-18T12:05:32.750Z,1005.17
2017-05-18T12:06:33.992Z,1005.18
2017-05-18T12:07:35.236Z,1005.19
2017-05-18T12:08:36.506Z,1005.23
2017-05-18T12:09:37.794Z,1005.21
2017-05-18T12:10:39.125Z,1005.25
2017-05-18T12:11:40.478Z,1005.22
2017-05-18T12:12:41.724Z,1005.27
2017-05-18T12:13:42.963Z,1005.32
2017-05-18T12:14:44.211Z,1005.31
2017-05-18T12:15:45.498Z,1005.32
2017-05-18T12:16:46.771Z,1005.33
2017-05-18T12:17:47.996Z,1005.33
2017-05-18T12:18:49.267Z,1005.39
2017-05-18T12:19:50.609Z,1005.34
2017-05-18T12:20:51.855Z,1005.32
2017-05-18T12:21:53.125Z,1005.3
2017-05-18T12:22:54.372Z,1005.28
2017-05-18T12:23:55.629Z,1005.3
2017-05-18T12:24:56.909Z,1005.32
2017-05-18T12:25:58.166Z,1005.31
2017-05-18T12:26:59.410Z,1005.3
2017-05-18T12:28:00.675Z,1005.29
2017-05-18T12:29:01.960Z,1005.26